createdAt,value
2022-08-17T00:00:42.878Z,85.95
2022-08-17T00:03:23.983Z,86.07
2022-08-17T00:05:57.767Z,85.96
2022-08-17T00:08:31.303Z,85.75
2022-08-17T00:10:59.825Z,85.74
2022-08-17T00:13:34.389Z,85.94
2022-08-17T00:16:09.147Z,85.87
2022-08-17T00:19:06.625Z,85.95
2022-08-17T00:21:26.300Z,86.14
2022-08-17T00:24:15.794Z,86.33
2022-08-17T00:26:44.982Z,86.55
2022-08-17T00:29:17.901Z,86.41
2022-08-17T00:31:49.599Z,86.45
2022-08-17T00:34:18.138Z,86.45
2022-08-17T00:36:46.090Z,86.68
2022-08-17T00:39:13.950Z,86.92
2022-08-17T00:41:42.752Z,87.12
2022-08-17T00:44:12.625Z,87.13
2022-08-17T00:46:43.272Z,87.16
2022-08-17T00:49:13.580Z,87.38
2022-08-17T00:51:51.353Z,87.63
2022-08-17T00:54:25.381Z,87.88
2022-08-17T00:57:17.623Z,87.76
2022-08-17T01:00:02.368Z,87.71
2022-08-17T01:02:42.605Z,87.63
2022-08-17T01:05:25.564Z,87.46
2022-08-17T01:07:54.360Z,87.41
2022-08-17T01:10:58.798Z,87.54
2022-08-17T01:13:21.224Z,87.50
2022-08-17T01:15:59.303Z,87.15
2022-08-17T01:18:28.591Z,87.23
2022-08-17T01:20:58.775Z,87.24
2022-08-17T01:23:28.947Z,87.09
2022-08-17T01:26:02.066Z,86.95
2022-08-17T01:28:40.701Z,86.91
2022-08-17T01:31:24.952Z,87.06
2022-08-17T01:33:53.589Z,86.82
2022-08-17T01:36:21.963Z,86.75
2022-08-17T01:38:50.121Z,86.90
2022-08-17T01:41:21.564Z,86.93
2022-08-17T01:43:55.244Z,86.85
2022-08-17T01:46:29.184Z,86.73
2022-08-17T01:48:58.153Z,86.78
2022-08-17T01:51:32.863Z,86.95
2022-08-17T01:54:05.872Z,86.85
2022-08-17T01:56:36.937Z,86.94
2022-08-17T01:59:05.312Z,87.20
2022-08-17T02:01:34.713Z,87.29
2022-08-17T02:04:04.947Z,87.05
2022-08-17T02:06:52.632Z,87.03
2022-08-17T02:09:25.956Z,87.11
2022-08-17T02:11:56.433Z,87.28
2022-08-17T02:14:25.154Z,87.39
2022-08-17T02:16:53.898Z,87.44
2022-08-17T02:19:22.868Z,87.06
2022-08-17T02:21:53.526Z,87.04
2022-08-17T02:24:58.685Z,87.22
2022-08-17T02:27:13.922Z,87.41
2022-08-17T02:29:41.848Z,87.55
2022-08-17T02:32:27.333Z,87.66
2022-08-17T02:34:57.593Z,87.49
2022-08-17T02:37:27.092Z,87.43
2022-08-17T02:39:57.384Z,87.49
2022-08-17T02:42:34.112Z,87.48
2022-08-17T02:45:04.522Z,87.60
2022-08-17T02:47:32.999Z,87.73
2022-08-17T02:50:00.895Z,87.64
2022-08-17T02:52:43.714Z,87.62
2022-08-17T02:55:19.125Z,87.70
2022-08-17T02:57:47.196Z,87.72
2022-08-17T03:00:29.007Z,87.62
2022-08-17T03:02:57.970Z,87.38
2022-08-17T03:05:28.308Z,87.37
2022-08-17T03:07:56.399Z,87.44
2022-08-17T03:10:25.670Z,87.53
2022-08-17T03:12:54.417Z,87.65
2022-08-17T03:15:28.401Z,87.83
2022-08-17T03:17:57.131Z,87.94
2022-08-17T03:20:28.759Z,87.96
2022-08-17T03:23:01.991Z,88.03
2022-08-17T03:25:34.534Z,88.05
2022-08-17T03:28:04.111Z,88.18
2022-08-17T03:30:32.858Z,88.14
2022-08-17T03:33:03.333Z,87.93
2022-08-17T03:35:33.582Z,88.03
2022-08-17T03:38:01.563Z,87.91
2022-08-17T03:40:55.516Z,87.77
2022-08-17T03:43:20.841Z,87.76
2022-08-17T03:46:10.083Z,87.83
2022-08-17T03:49:13.998Z,87.80
2022-08-17T03:52:01.141Z,88.03
2022-08-17T03:54:47.905Z,88.10
2022-08-17T03:57:16.718Z,88.10
2022-08-17T03:59:45.358Z,88.29
2022-08-17T04:02:18.760Z,88.51
2022-08-17T04:04:50.974Z,88.61
2022-08-17T04:07:21.698Z,88.68
2022-08-17T04:09:49.806Z,88.71
2022-08-17T04:12:23.664Z,88.77
2022-08-17T04:14:54.695Z,88.85
2022-08-17T04:17:30.924Z,88.86
2022-08-17T04:19:58.838Z,88.92
2022-08-17T04:22:31.906Z,89.00
2022-08-17T04:25:16.825Z,88.99
2022-08-17T04:27:44.649Z,89.06
2022-08-17T04:30:13.490Z,89.18
2022-08-17T04:33:05.527Z,89.24
2022-08-17T04:35:38.780Z,89.34
2022-08-17T04:38:12.306Z,89.46
2022-08-17T04:41:13.311Z,89.44
2022-08-17T04:43:42.998Z,89.59
2022-08-17T04:46:14.693Z,89.74
2022-08-17T04:48:46.198Z,89.96
2022-08-17T04:51:20.862Z,90.29
2022-08-17T04:53:54.097Z,90.72
2022-08-17T04:56:26.049Z,90.80
2022-08-17T04:59:00.265Z,90.87
2022-08-17T05:01:31.553Z,90.89
2022-08-17T05:04:32.196Z,91.05
2022-08-17T05:06:52.482Z,91.27
2022-08-17T05:09:23.557Z,91.43
2022-08-17T05:11:56.157Z,91.27
2022-08-17T05:14:33.534Z,91.41
2022-08-17T05:17:07.140Z,91.63
2022-08-17T05:19:39.578Z,91.54
2022-08-17T05:22:08.051Z,91.35
2022-08-17T05:24:40.795Z,91.47
2022-08-17T05:27:17.829Z,91.47
2022-08-17T05:29:46.841Z,91.82
2022-08-17T05:32:37.920Z,91.61
2022-08-17T05:35:05.354Z,91.70
2022-08-17T05:37:33.579Z,90.95
2022-08-17T05:40:01.581Z,90.22
2022-08-17T05:42:29.411Z,90.04
2022-08-17T05:44:58.862Z,90.07
2022-08-17T05:47:27.388Z,90.06
2022-08-17T05:49:55.725Z,89.56
2022-08-17T05:52:42.214Z,89.25
2022-08-17T05:55:28.642Z,89.22
2022-08-17T05:58:19.831Z,88.63
2022-08-17T06:01:00.988Z,88.40
2022-08-17T06:03:35.096Z,88.17
2022-08-17T06:06:14.514Z,87.85
2022-08-17T06:08:56.732Z,87.83
2022-08-17T06:11:31.532Z,87.74
2022-08-17T06:14:20.160Z,87.62
2022-08-17T06:16:54.553Z,87.25
2022-08-17T06:19:37.663Z,86.87
2022-08-17T06:22:07.624Z,86.87
2022-08-17T06:24:38.659Z,86.97
2022-08-17T06:27:13.645Z,86.74
2022-08-17T06:29:45.910Z,86.75
2022-08-17T06:32:14.620Z,86.66
2022-08-17T06:34:44.475Z,86.59
2022-08-17T06:37:42.293Z,86.27
2022-08-17T06:40:29.047Z,85.93
2022-08-17T06:43:23.524Z,85.55
2022-08-17T06:45:59.260Z,85.54
2022-08-17T06:48:52.556Z,85.10
2022-08-17T06:51:33.471Z,84.66
2022-08-17T06:54:25.592Z,84.10
2022-08-17T06:57:15.114Z,83.62
2022-08-17T06:59:56.291Z,83.05
2022-08-17T07:02:52.275Z,82.60
2022-08-17T07:05:39.784Z,82.60
2022-08-17T07:08:11.866Z,81.64
2022-08-17T07:10:47.312Z,81.62
2022-08-17T07:13:25.669Z,81.79
2022-08-17T07:16:01.104Z,81.67
2022-08-17T07:18:33.248Z,81.46
2022-08-17T07:21:26.728Z,81.31
2022-08-17T07:24:26.365Z,81.84
2022-08-17T07:27:21.458Z,81.84
2022-08-17T07:29:57.153Z,81.46
2022-08-17T07:32:46.190Z,80.80
2022-08-17T07:35:22.180Z,80.56
2022-08-17T07:38:24.941Z,79.45
2022-08-17T07:40:58.232Z,79.62
2022-08-17T07:43:39.384Z,79.58
2022-08-17T07:46:44.100Z,78.37
2022-08-17T07:49:32.863Z,79.30
2022-08-17T07:52:23.912Z,78.50
2022-08-17T07:54:58.120Z,78.12
2022-08-17T07:57:33.939Z,78.57
2022-08-17T08:00:02.015Z,77.84
2022-08-17T08:02:44.039Z,77.64
2022-08-17T08:05:49.178Z,77.27
2022-08-17T08:08:26.855Z,76.31
2022-08-17T08:11:34.912Z,75.89
2022-08-17T08:14:28.712Z,75.91
2022-08-17T08:17:09.227Z,75.63
2022-08-17T08:19:37.411Z,75.23
2022-08-17T08:22:11.710Z,74.75
2022-08-17T08:24:45.500Z,75.01
2022-08-17T08:27:50.273Z,74.32
2022-08-17T08:30:21.534Z,74.75
2022-08-17T08:32:57.237Z,73.89
2022-08-17T08:35:44.565Z,72.93
2022-08-17T08:38:37.146Z,73.63
2022-08-17T08:41:46.130Z,73.83
2022-08-17T08:45:00.232Z,72.60
2022-08-17T08:47:36.820Z,73.23
2022-08-17T08:50:37.554Z,72.76
2022-08-17T08:53:16.517Z,71.64
2022-08-17T08:56:03.417Z,71.43
2022-08-17T08:59:04.315Z,70.95
2022-08-17T09:01:56.460Z,70.55
2022-08-17T09:05:12.493Z,70.13
2022-08-17T09:07:51.441Z,70.03
2022-08-17T09:10:30.860Z,70.82
2022-08-17T09:13:14.159Z,69.69
2022-08-17T09:15:57.392Z,69.79
2022-08-17T09:19:00.285Z,69.55
2022-08-17T09:21:33.955Z,70.41
2022-08-17T09:24:13.032Z,70.19
2022-08-17T09:27:02.479Z,70.44
2022-08-17T09:29:37.604Z,69.85
2022-08-17T09:32:32.752Z,69.77
2022-08-17T09:35:06.323Z,69.49
2022-08-17T09:37:50.765Z,69.48
2022-08-17T09:40:38.396Z,69.38
2022-08-17T09:43:27.985Z,69.42
2022-08-17T09:46:02.519Z,70.04
2022-08-17T09:48:47.186Z,70.18
2022-08-17T09:51:40.302Z,69.75
2022-08-17T09:54:44.845Z,68.92
2022-08-17T09:57:31.729Z,68.49
2022-08-17T10:00:18.967Z,68.05
2022-08-17T10:03:09.786Z,67.49
2022-08-17T10:06:00.896Z,67.83
2022-08-17T10:08:32.311Z,67.99
2022-08-17T10:11:20.257Z,67.65
2022-08-17T10:14:02.816Z,67.21
2022-08-17T10:17:01.598Z,67.27
2022-08-17T10:19:38.434Z,67.25
2022-08-17T10:22:53.048Z,66.62
2022-08-17T10:25:54.567Z,64.74
2022-08-17T10:28:29.807Z,65.82
2022-08-17T10:31:33.266Z,64.78
2022-08-17T10:34:12.641Z,64.88
2022-08-17T10:36:47.589Z,64.19
2022-08-17T10:39:20.829Z,63.68
2022-08-17T10:41:53.725Z,61.71
2022-08-17T10:45:06.990Z,62.36
2022-08-17T10:48:05.156Z,62.64
2022-08-17T10:50:58.273Z,61.08
2022-08-17T10:53:32.221Z,61.53
2022-08-17T10:56:12.270Z,61.87
2022-08-17T10:58:49.635Z,62.28
2022-08-17T11:01:18.444Z,61.44
2022-08-17T11:03:58.142Z,61.52
2022-08-17T11:06:51.240Z,60.84
2022-08-17T11:09:42.328Z,61.70
2022-08-17T11:12:37.790Z,61.06
2022-08-17T11:15:11.617Z,60.04
2022-08-17T11:18:05.278Z,60.13
2022-08-17T11:21:08.785Z,58.83
2022-08-17T11:23:51.658Z,59.96
2022-08-17T11:26:27.832Z,60.12
2022-08-17T11:29:03.848Z,59.39
2022-08-17T11:31:44.526Z,59.54
2022-08-17T11:34:21.776Z,60.23
2022-08-17T11:37:42.399Z,60.41
2022-08-17T11:40:38.660Z,60.27
2022-08-17T11:43:32.914Z,58.92
2022-08-17T11:46:17.031Z,59.53
2022-08-17T11:49:25.409Z,59.59
2022-08-17T11:51:53.343Z,60.23
2022-08-17T11:54:33.249Z,59.34
2022-08-17T11:57:27.231Z,59.58
2022-08-17T12:00:06.874Z,59.17
2022-08-17T12:02:48.465Z,58.36
2022-08-17T12:05:25.894Z,59.08
2022-08-17T12:08:11.808Z,57.68
2022-08-17T12:10:54.671Z,57.75
2022-08-17T12:13:44.947Z,58.99
2022-08-17T12:16:18.220Z,58.73
2022-08-17T12:18:58.700Z,58.30
2022-08-17T12:21:40.868Z,58.40
2022-08-17T12:24:31.465Z,58.10
2022-08-17T12:27:01.984Z,57.47
2022-08-17T12:29:35.483Z,58.83
2022-08-17T12:32:17.603Z,57.51
2022-08-17T12:34:47.650Z,58.38
2022-08-17T12:37:31.640Z,57.34
2022-08-17T12:40:04.916Z,56.74
2022-08-17T12:42:37.569Z,56.65
2022-08-17T12:45:24.345Z,55.59
2022-08-17T12:48:09.282Z,55.53
2022-08-17T12:50:46.689Z,55.14
2022-08-17T12:53:17.549Z,54.67
2022-08-17T12:55:46.409Z,55.70
2022-08-17T12:58:21.716Z,55.48
2022-08-17T13:01:00.255Z,56.28
2022-08-17T13:03:38.837Z,55.59
2022-08-17T13:06:09.665Z,55.51
2022-08-17T13:08:47.819Z,56.27
2022-08-17T13:11:16.835Z,55.85
2022-08-17T13:14:07.656Z,56.37
2022-08-17T13:16:36.459Z,56.58
2022-08-17T13:19:13.048Z,55.83
2022-08-17T13:21:50.280Z,56.19
2022-08-17T13:24:25.921Z,55.63
2022-08-17T13:27:08.272Z,55.07
2022-08-17T13:29:45.812Z,55.03
2022-08-17T13:32:31.219Z,55.10
2022-08-17T13:35:29.638Z,54.37
2022-08-17T13:38:39.566Z,55.09
2022-08-17T13:41:08.040Z,55.16
2022-08-17T13:43:45.863Z,56.15
2022-08-17T13:46:28.651Z,55.39
2022-08-17T13:49:07.184Z,55.09
2022-08-17T13:51:46.954Z,54.60
2022-08-17T13:54:30.422Z,54.08
2022-08-17T13:57:00.668Z,55.38
2022-08-17T13:59:55.011Z,55.37
2022-08-17T14:02:25.838Z,54.61
2022-08-17T14:04:58.444Z,55.18
2022-08-17T14:07:31.429Z,55.26
2022-08-17T14:10:05.450Z,54.63
2022-08-17T14:12:36.279Z,54.92
2022-08-17T14:15:05.061Z,54.67
2022-08-17T14:17:38.064Z,55.20
2022-08-17T14:20:12.355Z,55.72
2022-08-17T14:22:45.055Z,55.34
2022-08-17T14:25:15.815Z,53.59
2022-08-17T14:27:52.996Z,53.69
2022-08-17T14:30:25.361Z,53.13
2022-08-17T14:32:54.561Z,52.87
2022-08-17T14:35:24.053Z,53.97
2022-08-17T14:37:52.801Z,53.89
2022-08-17T14:40:24.635Z,55.02
2022-08-17T14:42:55.390Z,56.02
2022-08-17T14:45:29.881Z,55.62
2022-08-17T14:48:04.436Z,55.11
2022-08-17T14:50:35.462Z,55.31
2022-08-17T14:53:06.065Z,55.79
2022-08-17T14:55:34.812Z,56.04
2022-08-17T14:58:04.289Z,56.06
2022-08-17T15:00:33.032Z,55.98
2022-08-17T15:03:02.287Z,56.36
2022-08-17T15:05:34.350Z,56.06
2022-08-17T15:08:03.868Z,56.99
2022-08-17T15:10:33.079Z,57.25
2022-08-17T15:13:01.259Z,58.15
2022-08-17T15:15:29.836Z,57.64
2022-08-17T15:17:58.889Z,57.56
2022-08-17T15:20:29.978Z,57.98
2022-08-17T15:22:59.646Z,58.68
2022-08-17T15:25:30.392Z,59.38
2022-08-17T15:27:59.560Z,59.20
2022-08-17T15:30:28.680Z,60.10
2022-08-17T15:32:58.940Z,59.73
2022-08-17T15:35:32.113Z,60.18
2022-08-17T15:38:11.779Z,60.75
2022-08-17T15:40:46.627Z,61.60
2022-08-17T15:43:27.090Z,62.14
2022-08-17T15:45:59.866Z,61.71
2022-08-17T15:48:41.690Z,62.22
2022-08-17T15:51:28.697Z,62.20
2022-08-17T15:54:04.598Z,62.57
2022-08-17T15:56:46.613Z,63.43
2022-08-17T15:59:14.572Z,64.02
2022-08-17T16:03:13.528Z,64.33
2022-08-17T16:04:31.918Z,64.75
2022-08-17T16:07:00.434Z,65.17
2022-08-17T16:09:28.703Z,65.67
2022-08-17T16:11:56.897Z,66.57
2022-08-17T16:14:33.567Z,66.82
2022-08-17T16:17:04.994Z,67.18
2022-08-17T16:19:52.908Z,67.37
2022-08-17T16:22:37.712Z,67.53
2022-08-17T16:25:12.576Z,67.34
2022-08-17T16:27:41.580Z,67.71
2022-08-17T16:30:15.048Z,67.32
2022-08-17T16:32:45.455Z,67.34
2022-08-17T16:35:17.507Z,67.36
2022-08-17T16:37:45.829Z,67.30
2022-08-17T16:40:16.150Z,67.32
2022-08-17T16:42:48.469Z,66.55
2022-08-17T16:45:19.209Z,66.52
2022-08-17T16:47:49.160Z,66.86
2022-08-17T16:50:20.646Z,66.47
2022-08-17T16:52:50.062Z,66.67
2022-08-17T16:55:21.160Z,67.03
2022-08-17T16:57:50.310Z,67.25
2022-08-17T17:00:21.142Z,67.47
2022-08-17T17:02:49.782Z,66.98
2022-08-17T17:05:40.460Z,67.70
2022-08-17T17:08:31.477Z,68.01
2022-08-17T17:11:09.753Z,67.78
2022-08-17T17:13:47.390Z,68.56
2022-08-17T17:16:31.121Z,68.26
2022-08-17T17:19:07.873Z,69.46
2022-08-17T17:22:11.270Z,69.53
2022-08-17T17:24:51.639Z,69.76
2022-08-17T17:27:38.251Z,69.94
2022-08-17T17:30:06.637Z,70.23
2022-08-17T17:32:43.713Z,70.45
2022-08-17T17:35:17.831Z,70.69
2022-08-17T17:37:47.194Z,71.08
2022-08-17T17:40:40.306Z,71.36
2022-08-17T17:43:37.261Z,71.54
2022-08-17T17:46:27.115Z,71.54
2022-08-17T17:49:00.660Z,70.82
2022-08-17T17:52:08.765Z,70.87
2022-08-17T17:54:53.003Z,70.31
2022-08-17T17:57:44.303Z,70.01
2022-08-17T18:00:38.925Z,70.08
2022-08-17T18:03:27.358Z,70.09
2022-08-17T18:06:00.590Z,70.19
2022-08-17T18:08:36.680Z,70.53
2022-08-17T18:11:25.376Z,70.53
2022-08-17T18:13:59.394Z,70.78
2022-08-17T18:16:32.975Z,70.73
2022-08-17T18:19:01.342Z,71.15
2022-08-17T18:21:38.098Z,71.34
2022-08-17T18:24:10.894Z,71.56
2022-08-17T18:26:44.708Z,71.75
2022-08-17T18:29:31.897Z,71.91
2022-08-17T18:32:18.923Z,72.25
2022-08-17T18:34:49.859Z,72.41
2022-08-17T18:37:33.118Z,72.59
2022-08-17T18:40:27.255Z,72.92
2022-08-17T18:43:03.360Z,73.20
2022-08-17T18:45:51.278Z,73.30
2022-08-17T18:48:29.960Z,73.41
2022-08-17T18:51:40.511Z,73.73
2022-08-17T18:54:14.465Z,73.92
2022-08-17T18:56:52.755Z,74.05
2022-08-17T18:59:33.860Z,74.15
2022-08-17T19:02:22.050Z,74.32
2022-08-17T19:05:29.452Z,74.42
2022-08-17T19:08:15.381Z,74.65
2022-08-17T19:10:47.262Z,74.88
2022-08-17T19:13:24.457Z,75.00
2022-08-17T19:16:12.010Z,75.15
2022-08-17T19:18:49.910Z,75.46
2022-08-17T19:21:33.867Z,75.73
2022-08-17T19:24:28.376Z,75.99
2022-08-17T19:27:14.641Z,75.95
2022-08-17T19:29:51.731Z,75.99
2022-08-17T19:32:31.724Z,76.13
2022-08-17T19:35:01.436Z,76.38
2022-08-17T19:38:01.016Z,76.50
2022-08-17T19:40:52.200Z,76.68
2022-08-17T19:43:21.095Z,76.93
2022-08-17T19:46:06.151Z,77.03
2022-08-17T19:48:53.769Z,77.40
2022-08-17T19:51:36.287Z,77.64
2022-08-17T19:54:16.191Z,77.79
2022-08-17T19:57:13.231Z,77.70
2022-08-17T19:59:50.900Z,77.68
2022-08-17T20:02:37.682Z,77.82
2022-08-17T20:05:21.467Z,77.96
2022-08-17T20:07:58.162Z,78.03
2022-08-17T20:10:32.455Z,78.40
2022-08-17T20:13:11.457Z,78.96
2022-08-17T20:15:43.248Z,79.09
2022-08-17T20:18:20.067Z,79.10
2022-08-17T20:21:19.900Z,79.05
2022-08-17T20:24:17.837Z,79.13
2022-08-17T20:26:58.183Z,79.32
2022-08-17T20:29:37.423Z,79.37
2022-08-17T20:32:18.292Z,79.58
2022-08-17T20:34:47.773Z,79.78
2022-08-17T20:37:15.675Z,80.18
2022-08-17T20:39:43.561Z,80.51
2022-08-17T20:42:20.765Z,80.66
2022-08-17T20:44:52.438Z,80.73
2022-08-17T20:47:26.979Z,80.61
2022-08-17T20:50:08.791Z,80.61
2022-08-17T20:52:56.145Z,80.87
2022-08-17T20:55:52.045Z,80.87
2022-08-17T20:58:30.049Z,80.82
2022-08-17T21:01:00.533Z,80.92
2022-08-17T21:03:40.031Z,81.04
2022-08-17T21:06:21.463Z,81.22
2022-08-17T21:09:29.734Z,81.19
2022-08-17T21:12:05.485Z,81.29
2022-08-17T21:15:00.264Z,81.47
2022-08-17T21:17:32.378Z,81.47
2022-08-17T21:20:11.550Z,81.63
2022-08-17T21:22:49.096Z,81.72
2022-08-17T21:25:46.531Z,81.87
2022-08-17T21:28:36.403Z,82.12
2022-08-17T21:31:50.847Z,82.45
2022-08-17T21:34:27.632Z,82.53
2022-08-17T21:37:16.477Z,82.75
2022-08-17T21:39:50.711Z,82.68
2022-08-17T21:42:25.243Z,83.37
2022-08-17T21:44:58.326Z,83.45
2022-08-17T21:47:29.531Z,83.44
2022-08-17T21:50:24.031Z,83.67
2022-08-17T21:52:54.296Z,83.79
2022-08-17T21:55:29.653Z,84.00
2022-08-17T21:58:13.727Z,83.86
2022-08-17T22:00:45.718Z,83.80
2022-08-17T22:03:26.235Z,83.73
2022-08-17T22:05:54.264Z,83.70
2022-08-17T22:08:26.063Z,83.94
2022-08-17T22:11:02.059Z,84.10
2022-08-17T22:13:30.235Z,84.06
2022-08-17T22:16:15.410Z,84.30
2022-08-17T22:18:58.219Z,84.51
2022-08-17T22:21:27.036Z,84.68
2022-08-17T22:24:05.478Z,84.58
2022-08-17T22:27:11.385Z,84.33
2022-08-17T22:29:53.251Z,84.00
2022-08-17T22:32:42.400Z,84.04
2022-08-17T22:35:28.947Z,84.17
2022-08-17T22:37:57.736Z,84.08
2022-08-17T22:40:34.592Z,84.08
2022-08-17T22:43:03.857Z,84.27
2022-08-17T22:45:35.298Z,84.47
2022-08-17T22:48:03.595Z,84.39
2022-08-17T22:50:35.747Z,84.68
2022-08-17T22:53:33.573Z,84.90
2022-08-17T22:56:20.649Z,85.09
2022-08-17T22:59:15.107Z,84.69
2022-08-17T23:01:45.679Z,84.46
2022-08-17T23:04:32.258Z,84.75
2022-08-17T23:07:00.871Z,84.78
2022-08-17T23:09:29.613Z,84.78
2022-08-17T23:11:58.965Z,84.50
2022-08-17T23:14:31.842Z,84.62
2022-08-17T23:17:00.870Z,84.74
2022-08-17T23:19:31.986Z,84.51
2022-08-17T23:22:02.891Z,84.61
2022-08-17T23:24:35.801Z,84.75
2022-08-17T23:27:07.703Z,84.88
2022-08-17T23:29:39.581Z,85.04
2022-08-17T23:32:10.210Z,85.04
2022-08-17T23:34:40.070Z,85.08
2022-08-17T23:37:10.457Z,85.31
2022-08-17T23:39:39.737Z,85.46
2022-08-17T23:42:11.198Z,85.31
2022-08-17T23:44:42.165Z,85.41
2022-08-17T23:47:11.317Z,85.51
2022-08-17T23:49:41.501Z,85.60
2022-08-17T23:52:15.004Z,85.75
2022-08-17T23:54:47.823Z,85.82
2022-08-17T23:57:19.400Z,85.93
2022-08-17T23:59:47.394Z,85.95
